sensor_id;sensor_type;location;lat;lon;timestamp;temperature;humidity
52413;DHT22;38339;53.234;6.578;2022-09-09T00:00:15;16.60;99.90
52413;DHT22;38339;53.234;6.578;2022-09-09T00:03:00;16.50;99.90
52413;DHT22;38339;53.234;6.578;2022-09-09T00:07:55;16.40;99.90
52413;DHT22;38339;53.234;6.578;2022-09-09T00:10:29;16.50;99.90
52413;DHT22;38339;53.234;6.578;2022-09-09T00:16:04;16.40;99.90
52413;DHT22;38339;53.234;6.578;2022-09-09T00:21:24;16.40;99.90
52413;DHT22;38339;53.234;6.578;2022-09-09T00:23:54;16.30;99.90
52413;DHT22;38339;53.234;6.578;2022-09-09T00:31:38;16.30;99.90
52413;DHT22;38339;53.234;6.578;2022-09-09T00:34:23;16.20;99.90
52413;DHT22;38339;53.234;6.578;2022-09-09T00:36:52;16.20;99.90
52413;DHT22;38339;53.234;6.578;2022-09-09T00:42:12;16.00;99.90
52413;DHT22;38339;53.234;6.578;2022-09-09T00:44:59;16.00;99.90
52413;DHT22;38339;53.234;6.578;2022-09-09T00:47:43;16.00;99.90
52413;DHT22;38339;53.234;6.578;2022-09-09T00:58:15;15.90;99.90
52413;DHT22;38339;53.234;6.578;2022-09-09T01:00:47;15.90;99.90
52413;DHT22;38339;53.234;6.578;2022-09-09T01:03:37;15.80;99.90
52413;DHT22;38339;53.234;6.578;2022-09-09T01:06:16;15.80;99.90
52413;DHT22;38339;53.234;6.578;2022-09-09T01:11:22;15.80;99.90
52413;DHT22;38339;53.234;6.578;2022-09-09T01:13:56;15.80;99.90
52413;DHT22;38339;53.234;6.578;2022-09-09T01:16:25;15.70;99.90
52413;DHT22;38339;53.234;6.578;2022-09-09T01:18:53;15.70;99.90
52413;DHT22;38339;53.234;6.578;2022-09-09T01:21:50;15.70;99.90
52413;DHT22;38339;53.234;6.578;2022-09-09T01:24:30;15.70;99.90
52413;DHT22;38339;53.234;6.578;2022-09-09T01:27:02;15.70;99.90
52413;DHT22;38339;53.234;6.578;2022-09-09T01:29:29;15.70;99.90
52413;DHT22;38339;53.234;6.578;2022-09-09T01:31:58;15.60;99.90
52413;DHT22;38339;53.234;6.578;2022-09-09T01:34:37;15.60;99.90
52413;DHT22;38339;53.234;6.578;2022-09-09T01:37:10;15.70;99.90
52413;DHT22;38339;53.234;6.578;2022-09-09T01:39:38;15.60;99.90
52413;DHT22;38339;53.234;6.578;2022-09-09T01:42:09;15.60;99.90
52413;DHT22;38339;53.234;6.578;2022-09-09T01:44:36;15.60;99.90
52413;DHT22;38339;53.234;6.578;2022-09-09T01:47:03;15.60;99.90
52413;DHT22;38339;53.234;6.578;2022-09-09T01:49:29;15.60;99.90
52413;DHT22;38339;53.234;6.578;2022-09-09T01:51:56;15.60;99.90
52413;DHT22;38339;53.234;6.578;2022-09-09T01:54:25;15.60;99.90
52413;DHT22;38339;53.234;6.578;2022-09-09T02:04:47;15.60;99.90
52413;DHT22;38339;53.234;6.578;2022-09-09T02:12:53;15.60;99.90
52413;DHT22;38339;53.234;6.578;2022-09-09T02:15:42;15.60;99.90
52413;DHT22;38339;53.234;6.578;2022-09-09T02:18:12;15.60;99.90
52413;DHT22;38339;53.234;6.578;2022-09-09T02:20:39;15.70;99.90
52413;DHT22;38339;53.234;6.578;2022-09-09T02:23:07;15.70;99.90
52413;DHT22;38339;53.234;6.578;2022-09-09T02:25:36;15.70;99.90
52413;DHT22;38339;53.234;6.578;2022-09-09T02:28:06;15.70;99.90
52413;DHT22;38339;53.234;6.578;2022-09-09T02:30:34;15.70;99.90
52413;DHT22;38339;53.234;6.578;2022-09-09T02:33:04;15.70;99.90
52413;DHT22;38339;53.234;6.578;2022-09-09T02:35:32;15.70;99.90
52413;DHT22;38339;53.234;6.578;2022-09-09T02:38:07;15.70;99.90
52413;DHT22;38339;53.234;6.578;2022-09-09T02:40:33;15.70;99.90
52413;DHT22;38339;53.234;6.578;2022-09-09T02:42:59;15.70;99.90
52413;DHT22;38339;53.234;6.578;2022-09-09T02:45:29;15.70;99.90
52413;DHT22;38339;53.234;6.578;2022-09-09T02:48:36;15.70;99.90
52413;DHT22;38339;53.234;6.578;2022-09-09T02:51:20;15.70;99.90
52413;DHT22;38339;53.234;6.578;2022-09-09T02:56:20;15.70;99.90
52413;DHT22;38339;53.234;6.578;2022-09-09T02:58:49;15.70;99.90
52413;DHT22;38339;53.234;6.578;2022-09-09T03:01:17;15.70;99.90
52413;DHT22;38339;53.234;6.578;2022-09-09T03:03:43;15.70;99.90
52413;DHT22;38339;53.234;6.578;2022-09-09T03:06:09;15.60;99.90
52413;DHT22;38339;53.234;6.578;2022-09-09T03:08:37;15.60;99.90
52413;DHT22;38339;53.234;6.578;2022-09-09T03:11:03;15.60;99.90
52413;DHT22;38339;53.234;6.578;2022-09-09T03:13:29;15.60;99.90
52413;DHT22;38339;53.234;6.578;2022-09-09T03:15:55;15.60;99.90
52413;DHT22;38339;53.234;6.578;2022-09-09T03:18:20;15.60;99.90
52413;DHT22;38339;53.234;6.578;2022-09-09T03:20:46;15.60;99.90
52413;DHT22;38339;53.234;6.578;2022-09-09T03:23:14;15.60;99.90
52413;DHT22;38339;53.234;6.578;2022-09-09T03:25:46;15.60;99.90
52413;DHT22;38339;53.234;6.578;2022-09-09T03:28:12;15.60;99.90
52413;DHT22;38339;53.234;6.578;2022-09-09T03:30:37;15.60;99.90
52413;DHT22;38339;53.234;6.578;2022-09-09T03:33:03;15.50;99.90
52413;DHT22;38339;53.234;6.578;2022-09-09T03:35:29;15.50;99.90
52413;DHT22;38339;53.234;6.578;2022-09-09T03:37:55;15.60;99.90
52413;DHT22;38339;53.234;6.578;2022-09-09T03:40:21;15.60;99.90
52413;DHT22;38339;53.234;6.578;2022-09-09T03:42:46;15.60;99.90
52413;DHT22;38339;53.234;6.578;2022-09-09T03:45:13;15.60;99.90
52413;DHT22;38339;53.234;6.578;2022-09-09T03:47:39;15.60;99.90
52413;DHT22;38339;53.234;6.578;2022-09-09T03:50:06;15.60;99.90
52413;DHT22;38339;53.234;6.578;2022-09-09T03:52:37;15.60;99.90
52413;DHT22;38339;53.234;6.578;2022-09-09T03:55:05;15.60;99.90
52413;DHT22;38339;53.234;6.578;2022-09-09T03:57:31;15.60;99.90
52413;DHT22;38339;53.234;6.578;2022-09-09T03:59:59;15.60;99.90
52413;DHT22;38339;53.234;6.578;2022-09-09T04:02:27;15.60;99.90
52413;DHT22;38339;53.234;6.578;2022-09-09T04:04:53;15.60;99.90
52413;DHT22;38339;53.234;6.578;2022-09-09T04:07:19;15.60;99.90
52413;DHT22;38339;53.234;6.578;2022-09-09T04:09:44;15.70;99.90
52413;DHT22;38339;53.234;6.578;2022-09-09T04:12:10;15.70;99.90
52413;DHT22;38339;53.234;6.578;2022-09-09T04:14:38;15.80;99.90
52413;DHT22;38339;53.234;6.578;2022-09-09T04:17:04;15.70;99.90
52413;DHT22;38339;53.234;6.578;2022-09-09T04:19:32;15.80;99.90
52413;DHT22;38339;53.234;6.578;2022-09-09T04:21:58;15.80;99.90
52413;DHT22;38339;53.234;6.578;2022-09-09T04:24:24;15.80;99.90
52413;DHT22;38339;53.234;6.578;2022-09-09T04:26:50;15.80;99.90
52413;DHT22;38339;53.234;6.578;2022-09-09T04:29:16;15.80;99.90
52413;DHT22;38339;53.234;6.578;2022-09-09T04:31:42;15.90;99.90
52413;DHT22;38339;53.234;6.578;2022-09-09T04:34:11;15.90;99.90
52413;DHT22;38339;53.234;6.578;2022-09-09T04:36:37;15.90;99.90
52413;DHT22;38339;53.234;6.578;2022-09-09T04:39:02;15.90;99.90
52413;DHT22;38339;53.234;6.578;2022-09-09T04:41:28;15.90;99.90
52413;DHT22;38339;53.234;6.578;2022-09-09T04:43:55;15.90;99.90
52413;DHT22;38339;53.234;6.578;2022-09-09T04:46:21;15.90;99.90
52413;DHT22;38339;53.234;6.578;2022-09-09T04:48:49;15.90;99.90
52413;DHT22;38339;53.234;6.578;2022-09-09T04:51:15;16.00;99.90
52413;DHT22;38339;53.234;6.578;2022-09-09T04:53:41;16.00;99.90
52413;DHT22;38339;53.234;6.578;2022-09-09T04:56:09;16.00;99.90
52413;DHT22;38339;53.234;6.578;2022-09-09T04:58:36;16.00;99.90
52413;DHT22;38339;53.234;6.578;2022-09-09T05:01:28;16.00;99.90
52413;DHT22;38339;53.234;6.578;2022-09-09T05:03:54;16.00;99.90
52413;DHT22;38339;53.234;6.578;2022-09-09T05:06:21;16.00;99.90
52413;DHT22;38339;53.234;6.578;2022-09-09T05:08:47;16.00;99.90
52413;DHT22;38339;53.234;6.578;2022-09-09T05:11:19;16.00;99.90
52413;DHT22;38339;53.234;6.578;2022-09-09T05:13:45;16.00;99.90
52413;DHT22;38339;53.234;6.578;2022-09-09T05:16:12;16.00;99.90
52413;DHT22;38339;53.234;6.578;2022-09-09T05:18:39;16.10;99.90
52413;DHT22;38339;53.234;6.578;2022-09-09T05:21:05;16.00;99.90
52413;DHT22;38339;53.234;6.578;2022-09-09T05:23:32;16.00;99.90
52413;DHT22;38339;53.234;6.578;2022-09-09T05:25:59;16.00;99.90
52413;DHT22;38339;53.234;6.578;2022-09-09T05:28:26;15.90;99.90
52413;DHT22;38339;53.234;6.578;2022-09-09T05:31:03;16.00;99.90
52413;DHT22;38339;53.234;6.578;2022-09-09T05:33:30;15.90;99.90
52413;DHT22;38339;53.234;6.578;2022-09-09T05:36:10;15.90;99.90
52413;DHT22;38339;53.234;6.578;2022-09-09T05:38:39;15.90;99.90
52413;DHT22;38339;53.234;6.578;2022-09-09T05:41:05;15.90;99.90
52413;DHT22;38339;53.234;6.578;2022-09-09T05:43:31;15.90;99.90
52413;DHT22;38339;53.234;6.578;2022-09-09T05:46:08;15.90;99.90
52413;DHT22;38339;53.234;6.578;2022-09-09T05:48:42;15.90;99.90
52413;DHT22;38339;53.234;6.578;2022-09-09T05:51:11;15.90;99.90
52413;DHT22;38339;53.234;6.578;2022-09-09T05:53:38;15.90;99.90
52413;DHT22;38339;53.234;6.578;2022-09-09T05:56:09;15.90;99.90
52413;DHT22;38339;53.234;6.578;2022-09-09T05:58:36;15.90;99.90
52413;DHT22;38339;53.234;6.578;2022-09-09T06:01:08;15.80;99.90
52413;DHT22;38339;53.234;6.578;2022-09-09T06:03:36;15.90;99.90
52413;DHT22;38339;53.234;6.578;2022-09-09T06:06:04;15.90;99.90
52413;DHT22;38339;53.234;6.578;2022-09-09T06:08:35;15.90;99.90
52413;DHT22;38339;53.234;6.578;2022-09-09T06:11:05;15.90;99.90
52413;DHT22;38339;53.234;6.578;2022-09-09T06:13:31;15.90;99.90
52413;DHT22;38339;53.234;6.578;2022-09-09T06:15:57;15.90;99.90
52413;DHT22;38339;53.234;6.578;2022-09-09T06:18:24;16.00;99.90
52413;DHT22;38339;53.234;6.578;2022-09-09T06:20:58;16.00;99.90
52413;DHT22;38339;53.234;6.578;2022-09-09T06:23:25;16.00;99.90
52413;DHT22;38339;53.234;6.578;2022-09-09T06:25:51;16.00;99.90
52413;DHT22;38339;53.234;6.578;2022-09-09T06:28:17;16.00;99.90
52413;DHT22;38339;53.234;6.578;2022-09-09T06:30:43;16.10;99.90
52413;DHT22;38339;53.234;6.578;2022-09-09T06:33:10;16.10;99.90
52413;DHT22;38339;53.234;6.578;2022-09-09T06:35:36;16.10;99.90
52413;DHT22;38339;53.234;6.578;2022-09-09T06:38:01;16.10;99.90
52413;DHT22;38339;53.234;6.578;2022-09-09T06:40:27;16.20;99.90
52413;DHT22;38339;53.234;6.578;2022-09-09T06:42:52;16.20;99.90
52413;DHT22;38339;53.234;6.578;2022-09-09T06:45:18;16.20;99.90
52413;DHT22;38339;53.234;6.578;2022-09-09T06:47:44;16.20;99.90
52413;DHT22;38339;53.234;6.578;2022-09-09T06:50:10;16.20;99.90
52413;DHT22;38339;53.234;6.578;2022-09-09T06:52:37;16.20;99.90
52413;DHT22;38339;53.234;6.578;2022-09-09T06:55:03;16.30;99.90
52413;DHT22;38339;53.234;6.578;2022-09-09T06:57:29;16.30;99.90
52413;DHT22;38339;53.234;6.578;2022-09-09T06:59:54;16.30;99.90
52413;DHT22;38339;53.234;6.578;2022-09-09T07:02:21;16.30;99.90
52413;DHT22;38339;53.234;6.578;2022-09-09T07:04:47;16.30;99.90
52413;DHT22;38339;53.234;6.578;2022-09-09T07:07:12;16.30;99.90
52413;DHT22;38339;53.234;6.578;2022-09-09T07:09:40;16.40;99.90
52413;DHT22;38339;53.234;6.578;2022-09-09T07:12:06;16.40;99.90
52413;DHT22;38339;53.234;6.578;2022-09-09T07:14:33;16.50;99.90
52413;DHT22;38339;53.234;6.578;2022-09-09T07:17:01;16.50;99.90
52413;DHT22;38339;53.234;6.578;2022-09-09T07:19:27;16.50;99.90
52413;DHT22;38339;53.234;6.578;2022-09-09T07:21:52;16.60;99.90
52413;DHT22;38339;53.234;6.578;2022-09-09T07:24:19;16.60;99.90
52413;DHT22;38339;53.234;6.578;2022-09-09T07:26:44;16.70;99.90
52413;DHT22;38339;53.234;6.578;2022-09-09T07:29:11;16.70;99.90
52413;DHT22;38339;53.234;6.578;2022-09-09T07:31:39;16.70;99.90
52413;DHT22;38339;53.234;6.578;2022-09-09T07:34:05;16.70;99.90
52413;DHT22;38339;53.234;6.578;2022-09-09T07:36:34;16.70;99.90
52413;DHT22;38339;53.234;6.578;2022-09-09T07:39:08;16.70;99.90
52413;DHT22;38339;53.234;6.578;2022-09-09T07:41:42;16.80;99.90
52413;DHT22;38339;53.234;6.578;2022-09-09T07:44:19;16.80;99.90
52413;DHT22;38339;53.234;6.578;2022-09-09T07:46:47;16.90;99.90
52413;DHT22;38339;53.234;6.578;2022-09-09T07:49:13;16.90;99.90
52413;DHT22;38339;53.234;6.578;2022-09-09T07:51:42;17.00;99.90
52413;DHT22;38339;53.234;6.578;2022-09-09T07:54:10;17.00;99.90
52413;DHT22;38339;53.234;6.578;2022-09-09T07:56:37;17.10;99.90
52413;DHT22;38339;53.234;6.578;2022-09-09T07:59:03;17.10;99.90
52413;DHT22;38339;53.234;6.578;2022-09-09T08:01:38;17.10;99.90
52413;DHT22;38339;53.234;6.578;2022-09-09T08:04:12;17.10;99.90
52413;DHT22;38339;53.234;6.578;2022-09-09T08:06:48;17.20;99.90
52413;DHT22;38339;53.234;6.578;2022-09-09T08:09:14;17.20;99.90
52413;DHT22;38339;53.234;6.578;2022-09-09T08:11:42;17.20;99.90
52413;DHT22;38339;53.234;6.578;2022-09-09T08:14:09;17.30;99.90
52413;DHT22;38339;53.234;6.578;2022-09-09T08:16:41;17.30;99.90
52413;DHT22;38339;53.234;6.578;2022-09-09T08:19:07;17.30;99.90
52413;DHT22;38339;53.234;6.578;2022-09-09T08:21:34;17.30;99.90
52413;DHT22;38339;53.234;6.578;2022-09-09T08:24:02;17.40;99.90
52413;DHT22;38339;53.234;6.578;2022-09-09T08:26:31;17.40;99.90
52413;DHT22;38339;53.234;6.578;2022-09-09T08:28:58;17.50;99.90
52413;DHT22;38339;53.234;6.578;2022-09-09T08:31:29;17.50;99.90
52413;DHT22;38339;53.234;6.578;2022-09-09T08:33:56;17.60;99.90
52413;DHT22;38339;53.234;6.578;2022-09-09T08:36:24;17.60;99.90
52413;DHT22;38339;53.234;6.578;2022-09-09T08:38:55;17.70;99.90
52413;DHT22;38339;53.234;6.578;2022-09-09T08:41:43;17.70;99.90
52413;DHT22;38339;53.234;6.578;2022-09-09T08:50:08;18.00;99.90
52413;DHT22;38339;53.234;6.578;2022-09-09T08:52:54;18.10;99.90
52413;DHT22;38339;53.234;6.578;2022-09-09T08:55:37;18.20;99.90
52413;DHT22;38339;53.234;6.578;2022-09-09T08:58:19;18.20;99.90
52413;DHT22;38339;53.234;6.578;2022-09-09T09:04:00;18.40;99.90
52413;DHT22;38339;53.234;6.578;2022-09-09T09:11:38;18.60;99.90
52413;DHT22;38339;53.234;6.578;2022-09-09T09:14:18;18.60;99.90
52413;DHT22;38339;53.234;6.578;2022-09-09T09:17:01;18.60;99.90
52413;DHT22;38339;53.234;6.578;2022-09-09T09:19:30;18.70;99.90
52413;DHT22;38339;53.234;6.578;2022-09-09T09:22:24;18.70;99.90
52413;DHT22;38339;53.234;6.578;2022-09-09T09:24:56;18.70;99.90
52413;DHT22;38339;53.234;6.578;2022-09-09T09:27:34;18.70;99.90
52413;DHT22;38339;53.234;6.578;2022-09-09T09:30:22;18.70;99.90
52413;DHT22;38339;53.234;6.578;2022-09-09T09:35:20;18.80;99.90
52413;DHT22;38339;53.234;6.578;2022-09-09T09:37:47;18.90;99.90
52413;DHT22;38339;53.234;6.578;2022-09-09T09:40:21;18.90;99.90
52413;DHT22;38339;53.234;6.578;2022-09-09T09:42:58;19.00;99.90
52413;DHT22;38339;53.234;6.578;2022-09-09T09:45:43;19.00;99.90
52413;DHT22;38339;53.234;6.578;2022-09-09T09:48:13;19.10;99.90
52413;DHT22;38339;53.234;6.578;2022-09-09T09:50:57;19.20;99.90
52413;DHT22;38339;53.234;6.578;2022-09-09T09:53:26;19.20;99.90
52413;DHT22;38339;53.234;6.578;2022-09-09T09:58:32;19.30;99.90
52413;DHT22;38339;53.234;6.578;2022-09-09T10:01:00;19.40;99.90
52413;DHT22;38339;53.234;6.578;2022-09-09T10:03:31;19.40;99.90
52413;DHT22;38339;53.234;6.578;2022-09-09T10:05:57;19.50;99.90
52413;DHT22;38339;53.234;6.578;2022-09-09T10:08:27;19.50;99.90
52413;DHT22;38339;53.234;6.578;2022-09-09T10:13:47;19.50;99.90
52413;DHT22;38339;53.234;6.578;2022-09-09T10:19:01;19.50;99.90
52413;DHT22;38339;53.234;6.578;2022-09-09T10:38:10;19.80;99.90
52413;DHT22;38339;53.234;6.578;2022-09-09T10:43:32;19.80;99.90
52413;DHT22;38339;53.234;6.578;2022-09-09T10:48:57;19.80;99.90
52413;DHT22;38339;53.234;6.578;2022-09-09T10:54:36;19.70;99.90
52413;DHT22;38339;53.234;6.578;2022-09-09T10:57:26;19.60;99.90
52413;DHT22;38339;53.234;6.578;2022-09-09T10:59:58;19.50;99.90
52413;DHT22;38339;53.234;6.578;2022-09-09T11:02:32;19.50;99.90
52413;DHT22;38339;53.234;6.578;2022-09-09T11:05:26;19.50;99.90
52413;DHT22;38339;53.234;6.578;2022-09-09T11:07:58;19.40;99.90
52413;DHT22;38339;53.234;6.578;2022-09-09T11:10:45;19.50;99.90
52413;DHT22;38339;53.234;6.578;2022-09-09T11:13:32;19.50;99.90
52413;DHT22;38339;53.234;6.578;2022-09-09T11:18:31;19.70;99.90
52413;DHT22;38339;53.234;6.578;2022-09-09T11:21:03;19.70;99.90
52413;DHT22;38339;53.234;6.578;2022-09-09T11:23:44;19.90;99.90
52413;DHT22;38339;53.234;6.578;2022-09-09T11:26:18;20.00;99.90
52413;DHT22;38339;53.234;6.578;2022-09-09T11:29:17;20.00;99.90
52413;DHT22;38339;53.234;6.578;2022-09-09T11:35:01;20.20;99.90
52413;DHT22;38339;53.234;6.578;2022-09-09T11:37:44;20.20;99.90
52413;DHT22;38339;53.234;6.578;2022-09-09T11:40:24;20.30;99.90
52413;DHT22;38339;53.234;6.578;2022-09-09T11:43:04;20.30;99.90
52413;DHT22;38339;53.234;6.578;2022-09-09T11:45:32;20.30;99.90
52413;DHT22;38339;53.234;6.578;2022-09-09T11:48:00;20.40;99.90
52413;DHT22;38339;53.234;6.578;2022-09-09T11:50:29;20.40;99.90
52413;DHT22;38339;53.234;6.578;2022-09-09T11:53:17;20.50;99.90
52413;DHT22;38339;53.234;6.578;2022-09-09T11:55:46;20.60;99.90
52413;DHT22;38339;53.234;6.578;2022-09-09T12:00:46;20.70;99.90
52413;DHT22;38339;53.234;6.578;2022-09-09T12:03:36;20.70;99.90
52413;DHT22;38339;53.234;6.578;2022-09-09T12:08:43;20.70;99.90
52413;DHT22;38339;53.234;6.578;2022-09-09T12:11:10;20.70;99.90
52413;DHT22;38339;53.234;6.578;2022-09-09T12:13:37;20.70;99.90
52413;DHT22;38339;53.234;6.578;2022-09-09T12:16:03;20.80;99.90
52413;DHT22;38339;53.234;6.578;2022-09-09T12:18:37;20.70;99.90
52413;DHT22;38339;53.234;6.578;2022-09-09T12:24:16;20.70;99.90
52413;DHT22;38339;53.234;6.578;2022-09-09T12:30:07;20.70;99.90
52413;DHT22;38339;53.234;6.578;2022-09-09T12:32:35;20.80;99.90
52413;DHT22;38339;53.234;6.578;2022-09-09T12:37:51;20.80;99.90
52413;DHT22;38339;53.234;6.578;2022-09-09T12:40:30;20.90;99.90
52413;DHT22;38339;53.234;6.578;2022-09-09T12:42:58;20.90;99.90
52413;DHT22;38339;53.234;6.578;2022-09-09T12:45:30;20.90;99.90
52413;DHT22;38339;53.234;6.578;2022-09-09T12:48:06;20.90;99.90
52413;DHT22;38339;53.234;6.578;2022-09-09T12:50:53;20.90;99.90
52413;DHT22;38339;53.234;6.578;2022-09-09T12:53:29;21.00;99.90
52413;DHT22;38339;53.234;6.578;2022-09-09T12:56:20;21.00;99.90
52413;DHT22;38339;53.234;6.578;2022-09-09T12:58:49;21.10;99.90
52413;DHT22;38339;53.234;6.578;2022-09-09T13:01:26;21.10;99.90
52413;DHT22;38339;53.234;6.578;2022-09-09T13:03:52;21.10;99.90
52413;DHT22;38339;53.234;6.578;2022-09-09T13:06:27;21.10;99.90
52413;DHT22;38339;53.234;6.578;2022-09-09T13:08:54;21.20;99.90
52413;DHT22;38339;53.234;6.578;2022-09-09T13:11:31;21.20;99.90
52413;DHT22;38339;53.234;6.578;2022-09-09T13:14:01;21.30;99.90
52413;DHT22;38339;53.234;6.578;2022-09-09T13:16:33;21.30;99.90
52413;DHT22;38339;53.234;6.578;2022-09-09T13:19:08;21.40;99.90
52413;DHT22;38339;53.234;6.578;2022-09-09T13:21:38;21.40;99.90
52413;DHT22;38339;53.234;6.578;2022-09-09T13:24:06;21.40;99.90
52413;DHT22;38339;53.234;6.578;2022-09-09T13:26:34;21.40;99.90
52413;DHT22;38339;53.234;6.578;2022-09-09T13:29:17;21.30;99.90
52413;DHT22;38339;53.234;6.578;2022-09-09T13:31:43;21.30;99.90
52413;DHT22;38339;53.234;6.578;2022-09-09T13:34:13;21.30;99.90
52413;DHT22;38339;53.234;6.578;2022-09-09T13:36:41;21.40;99.90
52413;DHT22;38339;53.234;6.578;2022-09-09T13:39:16;21.40;99.90
52413;DHT22;38339;53.234;6.578;2022-09-09T13:41:44;21.40;99.90
52413;DHT22;38339;53.234;6.578;2022-09-09T13:44:36;21.40;99.90
52413;DHT22;38339;53.234;6.578;2022-09-09T13:47:15;21.40;99.90
52413;DHT22;38339;53.234;6.578;2022-09-09T13:49:42;21.40;99.90
52413;DHT22;38339;53.234;6.578;2022-09-09T13:52:11;21.40;99.90
52413;DHT22;38339;53.234;6.578;2022-09-09T13:54:51;21.30;99.90
52413;DHT22;38339;53.234;6.578;2022-09-09T13:57:22;21.30;99.90
52413;DHT22;38339;53.234;6.578;2022-09-09T13:59:48;21.20;99.90
52413;DHT22;38339;53.234;6.578;2022-09-09T14:02:15;21.10;99.90
52413;DHT22;38339;53.234;6.578;2022-09-09T14:04:42;21.10;99.90
52413;DHT22;38339;53.234;6.578;2022-09-09T14:07:12;21.10;99.90
52413;DHT22;38339;53.234;6.578;2022-09-09T14:09:42;21.20;99.90
52413;DHT22;38339;53.234;6.578;2022-09-09T14:12:13;21.40;99.90
52413;DHT22;38339;53.234;6.578;2022-09-09T14:14:41;21.60;99.90
52413;DHT22;38339;53.234;6.578;2022-09-09T14:17:08;21.70;99.90
52413;DHT22;38339;53.234;6.578;2022-09-09T14:19:34;21.90;99.90
52413;DHT22;38339;53.234;6.578;2022-09-09T14:22:00;21.90;99.90
52413;DHT22;38339;53.234;6.578;2022-09-09T14:24:26;21.80;99.90
52413;DHT22;38339;53.234;6.578;2022-09-09T14:26:53;21.70;99.90
52413;DHT22;38339;53.234;6.578;2022-09-09T14:29:19;21.60;99.90
52413;DHT22;38339;53.234;6.578;2022-09-09T14:31:46;21.60;99.90
52413;DHT22;38339;53.234;6.578;2022-09-09T14:34:12;21.60;99.90
52413;DHT22;38339;53.234;6.578;2022-09-09T14:36:40;21.60;99.90
52413;DHT22;38339;53.234;6.578;2022-09-09T14:39:07;21.70;99.90
52413;DHT22;38339;53.234;6.578;2022-09-09T14:41:33;21.60;99.90
52413;DHT22;38339;53.234;6.578;2022-09-09T14:43:59;21.50;99.90
52413;DHT22;38339;53.234;6.578;2022-09-09T14:46:25;21.50;99.90
52413;DHT22;38339;53.234;6.578;2022-09-09T14:48:52;21.40;99.90
52413;DHT22;38339;53.234;6.578;2022-09-09T14:51:23;21.30;99.90
52413;DHT22;38339;53.234;6.578;2022-09-09T14:53:52;21.30;99.90
52413;DHT22;38339;53.234;6.578;2022-09-09T14:56:25;21.20;99.90
52413;DHT22;38339;53.234;6.578;2022-09-09T14:58:53;21.10;99.90
52413;DHT22;38339;53.234;6.578;2022-09-09T15:01:21;21.00;99.90
52413;DHT22;38339;53.234;6.578;2022-09-09T15:03:58;21.00;99.90
52413;DHT22;38339;53.234;6.578;2022-09-09T15:06:25;21.00;99.90
52413;DHT22;38339;53.234;6.578;2022-09-09T15:08:52;20.90;99.90
52413;DHT22;38339;53.234;6.578;2022-09-09T15:11:20;20.90;99.90
52413;DHT22;38339;53.234;6.578;2022-09-09T15:13:46;20.80;99.90
52413;DHT22;38339;53.234;6.578;2022-09-09T15:16:31;20.90;99.90
52413;DHT22;38339;53.234;6.578;2022-09-09T15:19:03;20.90;99.90
52413;DHT22;38339;53.234;6.578;2022-09-09T15:21:31;20.90;99.90
52413;DHT22;38339;53.234;6.578;2022-09-09T15:23:57;20.90;99.90
52413;DHT22;38339;53.234;6.578;2022-09-09T15:26:23;20.90;99.90
52413;DHT22;38339;53.234;6.578;2022-09-09T15:28:50;21.00;99.90
52413;DHT22;38339;53.234;6.578;2022-09-09T15:31:26;21.10;99.90
52413;DHT22;38339;53.234;6.578;2022-09-09T15:33:58;21.10;99.90
52413;DHT22;38339;53.234;6.578;2022-09-09T15:39:04;21.00;99.90
52413;DHT22;38339;53.234;6.578;2022-09-09T15:41:30;20.90;99.90
52413;DHT22;38339;53.234;6.578;2022-09-09T15:43:59;20.80;99.90
52413;DHT22;38339;53.234;6.578;2022-09-09T15:46:35;20.90;99.90
52413;DHT22;38339;53.234;6.578;2022-09-09T15:49:26;21.70;99.90
52413;DHT22;38339;53.234;6.578;2022-09-09T15:51:57;22.40;99.90
52413;DHT22;38339;53.234;6.578;2022-09-09T15:54:25;22.80;99.90
52413;DHT22;38339;53.234;6.578;2022-09-09T15:56:56;22.60;99.90
52413;DHT22;38339;53.234;6.578;2022-09-09T15:59:23;22.40;99.90
52413;DHT22;38339;53.234;6.578;2022-09-09T16:01:49;22.10;99.90
52413;DHT22;38339;53.234;6.578;2022-09-09T16:04:19;21.90;99.90
52413;DHT22;38339;53.234;6.578;2022-09-09T16:07:02;22.00;99.90
52413;DHT22;38339;53.234;6.578;2022-09-09T16:09:31;22.40;99.90
52413;DHT22;38339;53.234;6.578;2022-09-09T16:11:57;22.20;99.90
52413;DHT22;38339;53.234;6.578;2022-09-09T16:14:24;21.90;99.90
52413;DHT22;38339;53.234;6.578;2022-09-09T16:16:52;21.70;99.90
52413;DHT22;38339;53.234;6.578;2022-09-09T16:19:17;21.40;99.90
52413;DHT22;38339;53.234;6.578;2022-09-09T16:21:48;21.20;99.90
52413;DHT22;38339;53.234;6.578;2022-09-09T16:24:16;21.10;99.90
52413;DHT22;38339;53.234;6.578;2022-09-09T16:26:48;21.00;99.90
52413;DHT22;38339;53.234;6.578;2022-09-09T16:29:15;21.00;99.90
52413;DHT22;38339;53.234;6.578;2022-09-09T16:31:42;20.90;99.90
52413;DHT22;38339;53.234;6.578;2022-09-09T16:34:09;20.80;99.90
52413;DHT22;38339;53.234;6.578;2022-09-09T16:36:37;20.90;99.90
52413;DHT22;38339;53.234;6.578;2022-09-09T16:39:06;21.20;99.90
52413;DHT22;38339;53.234;6.578;2022-09-09T16:41:33;21.90;99.90
52413;DHT22;38339;53.234;6.578;2022-09-09T16:44:01;22.40;99.90
52413;DHT22;38339;53.234;6.578;2022-09-09T16:46:29;22.30;99.90
52413;DHT22;38339;53.234;6.578;2022-09-09T16:49:00;22.00;99.90
52413;DHT22;38339;53.234;6.578;2022-09-09T16:51:32;21.70;99.90
52413;DHT22;38339;53.234;6.578;2022-09-09T16:54:02;21.30;99.90
52413;DHT22;38339;53.234;6.578;2022-09-09T16:56:30;21.10;99.90
52413;DHT22;38339;53.234;6.578;2022-09-09T16:59:00;20.90;99.90
52413;DHT22;38339;53.234;6.578;2022-09-09T17:01:30;20.70;99.90
52413;DHT22;38339;53.234;6.578;2022-09-09T17:03:58;20.50;99.90
52413;DHT22;38339;53.234;6.578;2022-09-09T17:06:24;20.40;99.90
52413;DHT22;38339;53.234;6.578;2022-09-09T17:08:55;20.30;99.90
52413;DHT22;38339;53.234;6.578;2022-09-09T17:11:22;20.10;99.90
52413;DHT22;38339;53.234;6.578;2022-09-09T17:13:49;20.10;99.90
52413;DHT22;38339;53.234;6.578;2022-09-09T17:16:17;20.00;99.90
52413;DHT22;38339;53.234;6.578;2022-09-09T17:18:44;19.90;99.90
52413;DHT22;38339;53.234;6.578;2022-09-09T17:21:16;19.80;99.90
52413;DHT22;38339;53.234;6.578;2022-09-09T17:23:43;19.70;99.90
52413;DHT22;38339;53.234;6.578;2022-09-09T17:26:12;19.70;99.90
52413;DHT22;38339;53.234;6.578;2022-09-09T17:28:39;19.60;99.90
52413;DHT22;38339;53.234;6.578;2022-09-09T17:31:10;19.50;99.90
52413;DHT22;38339;53.234;6.578;2022-09-09T17:33:37;19.40;99.90
52413;DHT22;38339;53.234;6.578;2022-09-09T17:36:13;19.30;99.90
52413;DHT22;38339;53.234;6.578;2022-09-09T17:38:40;19.30;99.90
52413;DHT22;38339;53.234;6.578;2022-09-09T17:41:10;19.30;99.90
52413;DHT22;38339;53.234;6.578;2022-09-09T17:43:36;19.20;99.90
52413;DHT22;38339;53.234;6.578;2022-09-09T17:46:15;19.10;99.90